sensor_id;sensor_type;location;lat;lon;timestamp;temperature;humidity
69823;SHT31;57119;52.516;13.508;2023-07-29T00:00:32;16.95;99.99
69823;SHT31;57119;52.516;13.508;2023-07-29T00:02:58;16.81;99.99
69823;SHT31;57119;52.516;13.508;2023-07-29T00:05:23;16.76;99.99
69823;SHT31;57119;52.516;13.508;2023-07-29T00:07:48;16.67;99.99
69823;SHT31;57119;52.516;13.508;2023-07-29T00:10:14;16.63;99.99
69823;SHT31;57119;52.516;13.508;2023-07-29T00:12:39;16.53;99.99
69823;SHT31;57119;52.516;13.508;2023-07-29T00:15:05;16.56;99.99
69823;SHT31;57119;52.516;13.508;2023-07-29T00:17:30;16.50;99.99
69823;SHT31;57119;52.516;13.508;2023-07-29T00:19:56;16.48;99.99
69823;SHT31;57119;52.516;13.508;2023-07-29T00:22:21;16.45;99.99
69823;SHT31;57119;52.516;13.508;2023-07-29T00:24:52;16.33;99.99
69823;SHT31;57119;52.516;13.508;2023-07-29T00:27:19;16.32;99.99
69823;SHT31;57119;52.516;13.508;2023-07-29T00:29:45;16.21;99.99
69823;SHT31;57119;52.516;13.508;2023-07-29T00:32:10;16.16;99.99
69823;SHT31;57119;52.516;13.508;2023-07-29T00:34:35;16.11;99.99
69823;SHT31;57119;52.516;13.508;2023-07-29T00:37:01;16.18;99.99
69823;SHT31;57119;52.516;13.508;2023-07-29T00:39:26;16.16;99.99
69823;SHT31;57119;52.516;13.508;2023-07-29T00:41:51;16.21;99.99
69823;SHT31;57119;52.516;13.508;2023-07-29T00:44:17;16.33;99.99
69823;SHT31;57119;52.516;13.508;2023-07-29T00:46:43;16.33;99.99
69823;SHT31;57119;52.516;13.508;2023-07-29T00:49:10;16.52;99.99
69823;SHT31;57119;52.516;13.508;2023-07-29T00:51:36;16.70;99.99
69823;SHT31;57119;52.516;13.508;2023-07-29T00:54:01;16.71;99.99
69823;SHT31;57119;52.516;13.508;2023-07-29T00:56:27;16.81;99.99
69823;SHT31;57119;52.516;13.508;2023-07-29T00:58:52;16.74;99.99
69823;SHT31;57119;52.516;13.508;2023-07-29T01:01:24;16.71;99.99
69823;SHT31;57119;52.516;13.508;2023-07-29T01:03:49;16.63;99.99
69823;SHT31;57119;52.516;13.508;2023-07-29T01:09:20;16.48;99.99
69823;SHT31;57119;52.516;13.508;2023-07-29T01:12:03;16.38;99.99
69823;SHT31;57119;52.516;13.508;2023-07-29T01:15:03;16.32;99.99
69823;SHT31;57119;52.516;13.508;2023-07-29T01:17:42;16.22;99.99
69823;SHT31;57119;52.516;13.508;2023-07-29T01:20:11;16.08;99.99
69823;SHT31;57119;52.516;13.508;2023-07-29T01:22:39;16.04;99.99
69823;SHT31;57119;52.516;13.508;2023-07-29T01:25:05;15.91;99.99
69823;SHT31;57119;52.516;13.508;2023-07-29T01:27:31;15.90;99.99
69823;SHT31;57119;52.516;13.508;2023-07-29T01:29:57;15.90;99.99
69823;SHT31;57119;52.516;13.508;2023-07-29T01:32:43;15.88;99.99
69823;SHT31;57119;52.516;13.508;2023-07-29T01:35:28;15.83;99.99
69823;SHT31;57119;52.516;13.508;2023-07-29T01:38:05;15.78;99.99
69823;SHT31;57119;52.516;13.508;2023-07-29T01:40:32;15.80;99.99
69823;SHT31;57119;52.516;13.508;2023-07-29T01:42:58;15.68;99.99
69823;SHT31;57119;52.516;13.508;2023-07-29T01:45:24;15.61;99.99
69823;SHT31;57119;52.516;13.508;2023-07-29T01:47:53;15.65;99.99
69823;SHT31;57119;52.516;13.508;2023-07-29T01:50:18;15.53;99.99
69823;SHT31;57119;52.516;13.508;2023-07-29T01:52:44;15.53;99.99
69823;SHT31;57119;52.516;13.508;2023-07-29T01:55:09;15.58;99.99
69823;SHT31;57119;52.516;13.508;2023-07-29T01:57:34;15.50;99.99
69823;SHT31;57119;52.516;13.508;2023-07-29T02:00:00;15.47;99.99
69823;SHT31;57119;52.516;13.508;2023-07-29T02:02:25;15.49;99.99
69823;SHT31;57119;52.516;13.508;2023-07-29T02:04:50;15.43;99.99
69823;SHT31;57119;52.516;13.508;2023-07-29T02:07:18;15.44;99.99
69823;SHT31;57119;52.516;13.508;2023-07-29T02:09:44;15.39;99.99
69823;SHT31;57119;52.516;13.508;2023-07-29T02:12:09;15.33;99.99
69823;SHT31;57119;52.516;13.508;2023-07-29T02:14:35;15.33;99.99
69823;SHT31;57119;52.516;13.508;2023-07-29T02:17:00;15.26;99.99
69823;SHT31;57119;52.516;13.508;2023-07-29T02:19:26;15.22;99.99
69823;SHT31;57119;52.516;13.508;2023-07-29T02:21:51;15.16;99.99
69823;SHT31;57119;52.516;13.508;2023-07-29T02:24:16;15.20;99.99
69823;SHT31;57119;52.516;13.508;2023-07-29T02:26:41;15.19;99.99
69823;SHT31;57119;52.516;13.508;2023-07-29T02:29:07;15.09;99.99
69823;SHT31;57119;52.516;13.508;2023-07-29T02:31:32;15.09;99.99
69823;SHT31;57119;52.516;13.508;2023-07-29T02:34:00;15.16;99.99
69823;SHT31;57119;52.516;13.508;2023-07-29T02:36:25;15.16;99.99
69823;SHT31;57119;52.516;13.508;2023-07-29T02:38:50;15.15;99.99
69823;SHT31;57119;52.516;13.508;2023-07-29T02:41:16;15.06;99.99
69823;SHT31;57119;52.516;13.508;2023-07-29T02:43:48;15.05;99.99
69823;SHT31;57119;52.516;13.508;2023-07-29T02:46:13;15.08;99.99
69823;SHT31;57119;52.516;13.508;2023-07-29T02:48:38;15.09;99.99
69823;SHT31;57119;52.516;13.508;2023-07-29T02:51:04;14.99;99.99
69823;SHT31;57119;52.516;13.508;2023-07-29T02:53:29;14.98;99.99
69823;SHT31;57119;52.516;13.508;2023-07-29T02:55:55;14.99;99.99
69823;SHT31;57119;52.516;13.508;2023-07-29T02:58:20;14.93;99.99
69823;SHT31;57119;52.516;13.508;2023-07-29T03:00:45;14.99;99.99
69823;SHT31;57119;52.516;13.508;2023-07-29T03:03:12;15.00;99.99
69823;SHT31;57119;52.516;13.508;2023-07-29T03:05:38;14.95;99.99
69823;SHT31;57119;52.516;13.508;2023-07-29T03:08:03;14.93;99.99
69823;SHT31;57119;52.516;13.508;2023-07-29T03:10:28;14.88;99.99
69823;SHT31;57119;52.516;13.508;2023-07-29T03:12:54;14.82;99.99
69823;SHT31;57119;52.516;13.508;2023-07-29T03:15:23;14.87;99.99
69823;SHT31;57119;52.516;13.508;2023-07-29T03:17:49;14.93;99.99
69823;SHT31;57119;52.516;13.508;2023-07-29T03:20:15;14.87;99.99
69823;SHT31;57119;52.516;13.508;2023-07-29T03:22:40;14.93;99.99
69823;SHT31;57119;52.516;13.508;2023-07-29T03:25:05;14.89;99.99
69823;SHT31;57119;52.516;13.508;2023-07-29T03:27:31;14.92;99.99
69823;SHT31;57119;52.516;13.508;2023-07-29T03:29:56;14.95;99.99
69823;SHT31;57119;52.516;13.508;2023-07-29T03:32:22;14.93;99.99
69823;SHT31;57119;52.516;13.508;2023-07-29T03:34:48;14.89;99.99
69823;SHT31;57119;52.516;13.508;2023-07-29T03:37:13;14.93;99.99
69823;SHT31;57119;52.516;13.508;2023-07-29T03:39:38;14.98;99.99
69823;SHT31;57119;52.516;13.508;2023-07-29T03:42:04;14.99;99.99
69823;SHT31;57119;52.516;13.508;2023-07-29T03:44:29;15.06;99.99
69823;SHT31;57119;52.516;13.508;2023-07-29T03:46:56;15.06;99.99
69823;SHT31;57119;52.516;13.508;2023-07-29T03:49:21;15.06;99.99
69823;SHT31;57119;52.516;13.508;2023-07-29T03:51:46;15.10;99.99
69823;SHT31;57119;52.516;13.508;2023-07-29T03:54:12;15.06;99.99
69823;SHT31;57119;52.516;13.508;2023-07-29T03:56:37;15.10;99.99
69823;SHT31;57119;52.516;13.508;2023-07-29T03:59:04;15.32;99.99
69823;SHT31;57119;52.516;13.508;2023-07-29T04:01:30;15.37;99.99
69823;SHT31;57119;52.516;13.508;2023-07-29T04:03:55;15.32;99.99
69823;SHT31;57119;52.516;13.508;2023-07-29T04:06:21;15.42;99.99
69823;SHT31;57119;52.516;13.508;2023-07-29T04:08:46;15.46;99.99
69823;SHT31;57119;52.516;13.508;2023-07-29T04:11:12;15.61;99.99
69823;SHT31;57119;52.516;13.508;2023-07-29T04:13:37;15.84;99.99
69823;SHT31;57119;52.516;13.508;2023-07-29T04:16:04;16.00;99.99
69823;SHT31;57119;52.516;13.508;2023-07-29T04:18:29;16.09;99.99
69823;SHT31;57119;52.516;13.508;2023-07-29T04:20:55;16.23;99.99
69823;SHT31;57119;52.516;13.508;2023-07-29T04:23:20;16.33;99.99
69823;SHT31;57119;52.516;13.508;2023-07-29T04:25:45;16.42;99.99
69823;SHT31;57119;52.516;13.508;2023-07-29T04:28:11;16.52;99.99
69823;SHT31;57119;52.516;13.508;2023-07-29T04:30:36;16.70;99.99
69823;SHT31;57119;52.516;13.508;2023-07-29T04:33:02;16.84;99.99
69823;SHT31;57119;52.516;13.508;2023-07-29T04:35:28;17.00;99.99
69823;SHT31;57119;52.516;13.508;2023-07-29T04:37:53;17.06;99.99
69823;SHT31;57119;52.516;13.508;2023-07-29T04:40:18;17.28;99.99
69823;SHT31;57119;52.516;13.508;2023-07-29T04:42:44;17.22;99.99
69823;SHT31;57119;52.516;13.508;2023-07-29T04:45:10;17.25;99.99
69823;SHT31;57119;52.516;13.508;2023-07-29T04:47:35;17.27;99.99
69823;SHT31;57119;52.516;13.508;2023-07-29T04:50:00;17.19;99.99
69823;SHT31;57119;52.516;13.508;2023-07-29T04:52:26;17.25;99.99
69823;SHT31;57119;52.516;13.508;2023-07-29T04:54:51;17.25;99.99
69823;SHT31;57119;52.516;13.508;2023-07-29T04:57:16;17.21;99.99
69823;SHT31;57119;52.516;13.508;2023-07-29T04:59:42;17.36;99.99
69823;SHT31;57119;52.516;13.508;2023-07-29T05:02:07;17.29;99.99
69823;SHT31;57119;52.516;13.508;2023-07-29T05:04:32;17.39;99.99
69823;SHT31;57119;52.516;13.508;2023-07-29T05:06:58;17.48;99.99
69823;SHT31;57119;52.516;13.508;2023-07-29T05:09:23;17.56;99.99
69823;SHT31;57119;52.516;13.508;2023-07-29T05:11:49;17.73;99.99
69823;SHT31;57119;52.516;13.508;2023-07-29T05:14:15;17.76;99.99
69823;SHT31;57119;52.516;13.508;2023-07-29T05:16:41;17.82;99.99
69823;SHT31;57119;52.516;13.508;2023-07-29T05:19:07;17.86;99.99
69823;SHT31;57119;52.516;13.508;2023-07-29T05:21:32;17.97;99.99
69823;SHT31;57119;52.516;13.508;2023-07-29T05:23:58;18.06;99.99
69823;SHT31;57119;52.516;13.508;2023-07-29T05:26:23;18.00;99.99
69823;SHT31;57119;52.516;13.508;2023-07-29T05:28:48;18.14;99.99
69823;SHT31;57119;52.516;13.508;2023-07-29T05:31:14;18.33;99.99
69823;SHT31;57119;52.516;13.508;2023-07-29T05:33:39;18.55;99.99
69823;SHT31;57119;52.516;13.508;2023-07-29T05:36:05;18.77;99.99
69823;SHT31;57119;52.516;13.508;2023-07-29T05:38:30;18.98;99.99
69823;SHT31;57119;52.516;13.508;2023-07-29T05:40:56;19.02;99.99
69823;SHT31;57119;52.516;13.508;2023-07-29T05:43:21;18.88;99.99
69823;SHT31;57119;52.516;13.508;2023-07-29T05:45:47;18.79;99.99
69823;SHT31;57119;52.516;13.508;2023-07-29T05:48:12;18.91;99.99
69823;SHT31;57119;52.516;13.508;2023-07-29T05:50:37;18.93;99.99
69823;SHT31;57119;52.516;13.508;2023-07-29T05:53:03;19.07;99.99
69823;SHT31;57119;52.516;13.508;2023-07-29T05:55:28;19.24;99.99
69823;SHT31;57119;52.516;13.508;2023-07-29T05:57:54;19.35;99.99
69823;SHT31;57119;52.516;13.508;2023-07-29T06:00:20;19.40;99.99
69823;SHT31;57119;52.516;13.508;2023-07-29T06:02:45;19.28;99.99
69823;SHT31;57119;52.516;13.508;2023-07-29T06:05:11;19.13;99.99
69823;SHT31;57119;52.516;13.508;2023-07-29T06:07:36;19.33;99.99
69823;SHT31;57119;52.516;13.508;2023-07-29T06:10:02;19.65;99.99
69823;SHT31;57119;52.516;13.508;2023-07-29T06:12:27;19.78;99.99
69823;SHT31;57119;52.516;13.508;2023-07-29T06:14:53;19.79;99.99
69823;SHT31;57119;52.516;13.508;2023-07-29T06:17:18;20.06;99.99
69823;SHT31;57119;52.516;13.508;2023-07-29T06:19:43;20.10;99.99
69823;SHT31;57119;52.516;13.508;2023-07-29T06:22:09;20.30;99.99
69823;SHT31;57119;52.516;13.508;2023-07-29T06:24:35;20.17;99.99
69823;SHT31;57119;52.516;13.508;2023-07-29T06:27:00;20.02;99.99
69823;SHT31;57119;52.516;13.508;2023-07-29T06:29:25;20.02;99.99
69823;SHT31;57119;52.516;13.508;2023-07-29T06:31:51;19.83;99.99
69823;SHT31;57119;52.516;13.508;2023-07-29T06:34:17;19.96;99.99
69823;SHT31;57119;52.516;13.508;2023-07-29T06:36:43;20.39;99.99
69823;SHT31;57119;52.516;13.508;2023-07-29T06:39:11;20.67;99.99
69823;SHT31;57119;52.516;13.508;2023-07-29T06:41:37;21.04;99.99
69823;SHT31;57119;52.516;13.508;2023-07-29T06:44:03;21.22;99.99
69823;SHT31;57119;52.516;13.508;2023-07-29T06:46:29;21.12;99.28
69823;SHT31;57119;52.516;13.508;2023-07-29T06:48:54;21.01;99.47
69823;SHT31;57119;52.516;13.508;2023-07-29T06:51:19;21.41;99.28
69823;SHT31;57119;52.516;13.508;2023-07-29T06:53:45;21.50;98.85
69823;SHT31;57119;52.516;13.508;2023-07-29T06:56:13;21.97;97.27
69823;SHT31;57119;52.516;13.508;2023-07-29T06:58:38;22.51;96.65
69823;SHT31;57119;52.516;13.508;2023-07-29T07:01:03;22.80;94.98
69823;SHT31;57119;52.516;13.508;2023-07-29T07:03:29;22.86;94.61
69823;SHT31;57119;52.516;13.508;2023-07-29T07:05:54;22.86;94.05
69823;SHT31;57119;52.516;13.508;2023-07-29T07:08:20;22.60;94.70
69823;SHT31;57119;52.516;13.508;2023-07-29T07:10:47;22.73;94.59
69823;SHT31;57119;52.516;13.508;2023-07-29T07:13:12;22.58;95.04
69823;SHT31;57119;52.516;13.508;2023-07-29T07:15:37;22.96;94.83
69823;SHT31;57119;52.516;13.508;2023-07-29T07:18:03;22.66;95.29
69823;SHT31;57119;52.516;13.508;2023-07-29T07:20:28;23.03;94.08
69823;SHT31;57119;52.516;13.508;2023-07-29T07:22:54;22.75;93.19
69823;SHT31;57119;52.516;13.508;2023-07-29T07:25:20;22.42;94.54
69823;SHT31;57119;52.516;13.508;2023-07-29T07:27:45;22.83;93.87
69823;SHT31;57119;52.516;13.508;2023-07-29T07:30:11;23.13;93.62
69823;SHT31;57119;52.516;13.508;2023-07-29T07:32:36;23.10;93.22
69823;SHT31;57119;52.516;13.508;2023-07-29T07:35:02;23.17;93.43
69823;SHT31;57119;52.516;13.508;2023-07-29T07:37:27;22.86;93.68
69823;SHT31;57119;52.516;13.508;2023-07-29T07:39:53;23.27;92.27
69823;SHT31;57119;52.516;13.508;2023-07-29T07:42:18;23.58;91.74
69823;SHT31;57119;52.516;13.508;2023-07-29T07:44:43;23.66;91.29
69823;SHT31;57119;52.516;13.508;2023-07-29T07:47:09;24.29;90.01
69823;SHT31;57119;52.516;13.508;2023-07-29T07:49:34;24.20;89.74
69823;SHT31;57119;52.516;13.508;2023-07-29T07:51:59;23.81;90.78
69823;SHT31;57119;52.516;13.508;2023-07-29T07:54:25;23.72;90.99
69823;SHT31;57119;52.516;13.508;2023-07-29T07:56:50;23.65;91.56
69823;SHT31;57119;52.516;13.508;2023-07-29T07:59:16;24.41;89.94
69823;SHT31;57119;52.516;13.508;2023-07-29T08:01:41;24.43;88.70
69823;SHT31;57119;52.516;13.508;2023-07-29T08:04:06;23.88;89.86
69823;SHT31;57119;52.516;13.508;2023-07-29T08:06:32;23.93;90.46
69823;SHT31;57119;52.516;13.508;2023-07-29T08:08:58;24.29;88.86
69823;SHT31;57119;52.516;13.508;2023-07-29T08:11:24;24.19;89.01
69823;SHT31;57119;52.516;13.508;2023-07-29T08:13:50;24.64;87.51
69823;SHT31;57119;52.516;13.508;2023-07-29T08:16:15;24.39;88.33
69823;SHT31;57119;52.516;13.508;2023-07-29T08:18:40;24.54;88.20
69823;SHT31;57119;52.516;13.508;2023-07-29T08:21:06;24.43;88.22
69823;SHT31;57119;52.516;13.508;2023-07-29T08:23:34;24.61;87.98
69823;SHT31;57119;52.516;13.508;2023-07-29T08:26:01;25.09;87.23
69823;SHT31;57119;52.516;13.508;2023-07-29T08:28:32;25.01;87.16
69823;SHT31;57119;52.516;13.508;2023-07-29T08:30:58;24.96;87.43
69823;SHT31;57119;52.516;13.508;2023-07-29T08:33:24;25.36;86.08
69823;SHT31;57119;52.516;13.508;2023-07-29T08:35:50;25.16;85.91
69823;SHT31;57119;52.516;13.508;2023-07-29T08:38:15;24.91;86.48
69823;SHT31;57119;52.516;13.508;2023-07-29T08:40:45;25.71;85.39
69823;SHT31;57119;52.516;13.508;2023-07-29T08:43:14;26.31;83.92
69823;SHT31;57119;52.516;13.508;2023-07-29T08:45:42;26.45;83.38
69823;SHT31;57119;52.516;13.508;2023-07-29T08:48:10;25.42;84.67
69823;SHT31;57119;52.516;13.508;2023-07-29T08:50:37;25.90;84.18
69823;SHT31;57119;52.516;13.508;2023-07-29T08:53:05;26.14;83.61
69823;SHT31;57119;52.516;13.508;2023-07-29T08:55:32;25.59;84.40
69823;SHT31;57119;52.516;13.508;2023-07-29T08:57:58;25.14;85.73
69823;SHT31;57119;52.516;13.508;2023-07-29T09:00:25;24.96;85.71
69823;SHT31;57119;52.516;13.508;2023-07-29T09:02:51;25.16;85.79
69823;SHT31;57119;52.516;13.508;2023-07-29T09:05:16;25.54;85.07
69823;SHT31;57119;52.516;13.508;2023-07-29T09:07:42;25.97;83.65
69823;SHT31;57119;52.516;13.508;2023-07-29T09:10:09;26.66;82.25
69823;SHT31;57119;52.516;13.508;2023-07-29T09:12:38;26.56;81.89
69823;SHT31;57119;52.516;13.508;2023-07-29T09:15:04;27.18;81.83
69823;SHT31;57119;52.516;13.508;2023-07-29T09:17:32;27.42;79.55
69823;SHT31;57119;52.516;13.508;2023-07-29T09:19:58;27.62;79.24
69823;SHT31;57119;52.516;13.508;2023-07-29T09:22:23;27.65;79.09
69823;SHT31;57119;52.516;13.508;2023-07-29T09:24:51;28.16;78.19
69823;SHT31;57119;52.516;13.508;2023-07-29T09:27:26;27.89;78.06
69823;SHT31;57119;52.516;13.508;2023-07-29T09:29:54;26.80;81.23
69823;SHT31;57119;52.516;13.508;2023-07-29T09:32:23;27.49;78.78
69823;SHT31;57119;52.516;13.508;2023-07-29T09:34:49;27.37;79.77
69823;SHT31;57119;52.516;13.508;2023-07-29T09:37:21;26.80;80.21
69823;SHT31;57119;52.516;13.508;2023-07-29T09:39:49;26.69;80.84
69823;SHT31;57119;52.516;13.508;2023-07-29T09:42:20;26.73;80.50
69823;SHT31;57119;52.516;13.508;2023-07-29T09:44:47;25.66;83.72
69823;SHT31;57119;52.516;13.508;2023-07-29T09:47:19;26.94;81.37
69823;SHT31;57119;52.516;13.508;2023-07-29T09:49:45;26.94;80.83
69823;SHT31;57119;52.516;13.508;2023-07-29T09:52:11;27.47;80.50
69823;SHT31;57119;52.516;13.508;2023-07-29T09:54:37;26.00;82.89
69823;SHT31;57119;52.516;13.508;2023-07-29T09:57:02;25.73;83.91
69823;SHT31;57119;52.516;13.508;2023-07-29T09:59:28;25.94;82.47
69823;SHT31;57119;52.516;13.508;2023-07-29T10:01:58;26.33;81.61
69823;SHT31;57119;52.516;13.508;2023-07-29T10:04:24;26.69;81.43
69823;SHT31;57119;52.516;13.508;2023-07-29T10:06:51;27.10;80.06
69823;SHT31;57119;52.516;13.508;2023-07-29T10:09:18;28.03;78.59
69823;SHT31;57119;52.516;13.508;2023-07-29T10:11:44;27.52;79.10
69823;SHT31;57119;52.516;13.508;2023-07-29T10:14:11;27.68;78.67
69823;SHT31;57119;52.516;13.508;2023-07-29T10:16:36;27.62;78.83
69823;SHT31;57119;52.516;13.508;2023-07-29T10:19:04;27.79;78.84
69823;SHT31;57119;52.516;13.508;2023-07-29T10:21:29;27.75;78.12
69823;SHT31;57119;52.516;13.508;2023-07-29T10:23:59;27.92;78.46
69823;SHT31;57119;52.516;13.508;2023-07-29T10:26:28;27.49;78.71
69823;SHT31;57119;52.516;13.508;2023-07-29T10:28:54;27.52;78.87
69823;SHT31;57119;52.516;13.508;2023-07-29T10:31:22;26.45;81.47
69823;SHT31;57119;52.516;13.508;2023-07-29T10:33:48;27.48;79.16
69823;SHT31;57119;52.516;13.508;2023-07-29T10:36:14;26.97;80.28
69823;SHT31;57119;52.516;13.508;2023-07-29T10:38:40;26.73;80.11
69823;SHT31;57119;52.516;13.508;2023-07-29T10:41:06;27.04;79.35
69823;SHT31;57119;52.516;13.508;2023-07-29T10:43:33;27.38;79.18
69823;SHT31;57119;52.516;13.508;2023-07-29T10:46:15;26.60;80.71
69823;SHT31;57119;52.516;13.508;2023-07-29T10:48:54;26.42;80.21
69823;SHT31;57119;52.516;13.508;2023-07-29T10:51:36;26.45;79.91
69823;SHT31;57119;52.516;13.508;2023-07-29T10:54:13;26.64;80.09
69823;SHT31;57119;52.516;13.508;2023-07-29T10:56:47;26.08;81.47
69823;SHT31;57119;52.516;13.508;2023-07-29T11:01:42;26.22;81.02
69823;SHT31;57119;52.516;13.508;2023-07-29T11:12:44;25.37;80.16
69823;SHT31;57119;52.516;13.508;2023-07-29T11:17:43;25.22;79.95
69823;SHT31;57119;52.516;13.508;2023-07-29T11:20:09;25.25;81.05
69823;SHT31;57119;52.516;13.508;2023-07-29T11:22:36;25.06;81.26
69823;SHT31;57119;52.516;13.508;2023-07-29T11:25:02;24.78;82.65
69823;SHT31;57119;52.516;13.508;2023-07-29T11:27:27;23.99;85.27
69823;SHT31;57119;52.516;13.508;2023-07-29T11:30:00;21.06;99.99
69823;SHT31;57119;52.516;13.508;2023-07-29T11:32:26;19.88;99.99
69823;SHT31;57119;52.516;13.508;2023-07-29T11:34:52;19.61;99.99
69823;SHT31;57119;52.516;13.508;2023-07-29T11:37:17;19.53;99.99
69823;SHT31;57119;52.516;13.508;2023-07-29T11:39:44;19.62;99.99
69823;SHT31;57119;52.516;13.508;2023-07-29T11:42:11;19.85;99.99
69823;SHT31;57119;52.516;13.508;2023-07-29T11:44:36;20.05;99.99
69823;SHT31;57119;52.516;13.508;2023-07-29T11:47:02;19.99;99.99
69823;SHT31;57119;52.516;13.508;2023-07-29T11:49:27;19.74;99.99
69823;SHT31;57119;52.516;13.508;2023-07-29T11:51:53;19.85;99.99
69823;SHT31;57119;52.516;13.508;2023-07-29T11:54:19;20.12;99.99
69823;SHT31;57119;52.516;13.508;2023-07-29T11:56:47;20.37;99.99
69823;SHT31;57119;52.516;13.508;2023-07-29T11:59:12;20.58;99.99
69823;SHT31;57119;52.516;13.508;2023-07-29T12:01:38;20.80;99.99
69823;SHT31;57119;52.516;13.508;2023-07-29T12:04:04;20.87;99.99
69823;SHT31;57119;52.516;13.508;2023-07-29T12:06:29;20.94;99.99
69823;SHT31;57119;52.516;13.508;2023-07-29T12:08:57;20.98;99.99
69823;SHT31;57119;52.516;13.508;2023-07-29T12:11:23;20.92;99.99
69823;SHT31;57119;52.516;13.508;2023-07-29T12:13:48;20.78;99.99
69823;SHT31;57119;52.516;13.508;2023-07-29T12:16:16;20.85;99.99
69823;SHT31;57119;52.516;13.508;2023-07-29T12:18:43;20.99;99.99
69823;SHT31;57119;52.516;13.508;2023-07-29T12:21:08;21.09;99.99
69823;SHT31;57119;52.516;13.508;2023-07-29T12:23:34;21.12;99.99
69823;SHT31;57119;52.516;13.508;2023-07-29T12:25:59;20.88;99.99
69823;SHT31;57119;52.516;13.508;2023-07-29T12:28:25;20.73;99.99
69823;SHT31;57119;52.516;13.508;2023-07-29T12:30:54;20.68;99.99
69823;SHT31;57119;52.516;13.508;2023-07-29T12:33:34;20.80;99.99
69823;SHT31;57119;52.516;13.508;2023-07-29T12:36:01;20.78;99.99
69823;SHT31;57119;52.516;13.508;2023-07-29T12:38:26;20.90;99.99
69823;SHT31;57119;52.516;13.508;2023-07-29T12:40:52;21.02;99.99
69823;SHT31;57119;52.516;13.508;2023-07-29T12:43:17;21.06;99.99
69823;SHT31;57119;52.516;13.508;2023-07-29T12:45:43;21.45;99.99
69823;SHT31;57119;52.516;13.508;2023-07-29T12:48:09;22.04;99.99
69823;SHT31;57119;52.516;13.508;2023-07-29T12:50:35;22.58;99.99
69823;SHT31;57119;52.516;13.508;2023-07-29T12:53:01;23.03;99.99
69823;SHT31;57119;52.516;13.508;2023-07-29T12:55:26;24.02;96.56
69823;SHT31;57119;52.516;13.508;2023-07-29T12:57:51;24.61;96.62
69823;SHT31;57119;52.516;13.508;2023-07-29T13:00:17;26.94;91.44
69823;SHT31;57119;52.516;13.508;2023-07-29T13:02:42;27.75;86.15
69823;SHT31;57119;52.516;13.508;2023-07-29T13:05:10;27.97;83.97
69823;SHT31;57119;52.516;13.508;2023-07-29T13:07:37;28.75;84.89
69823;SHT31;57119;52.516;13.508;2023-07-29T13:10:03;27.95;84.63
69823;SHT31;57119;52.516;13.508;2023-07-29T13:12:28;28.57;82.89
69823;SHT31;57119;52.516;13.508;2023-07-29T13:14:54;28.51;82.74
69823;SHT31;57119;52.516;13.508;2023-07-29T13:17:19;27.68;84.83
69823;SHT31;57119;52.516;13.508;2023-07-29T13:19:45;27.10;85.03
69823;SHT31;57119;52.516;13.508;2023-07-29T13:22:11;26.63;85.28
69823;SHT31;57119;52.516;13.508;2023-07-29T13:24:36;25.11;87.48
69823;SHT31;57119;52.516;13.508;2023-07-29T13:27:02;24.79;90.41
69823;SHT31;57119;52.516;13.508;2023-07-29T13:29:28;24.58;90.02
69823;SHT31;57119;52.516;13.508;2023-07-29T13:31:53;24.57;90.42
69823;SHT31;57119;52.516;13.508;2023-07-29T13:34:18;24.29;90.73
69823;SHT31;57119;52.516;13.508;2023-07-29T13:36:44;23.81;91.42
69823;SHT31;57119;52.516;13.508;2023-07-29T13:39:09;24.44;90.81
69823;SHT31;57119;52.516;13.508;2023-07-29T13:41:34;25.02;90.15
69823;SHT31;57119;52.516;13.508;2023-07-29T13:44:00;26.32;86.87
69823;SHT31;57119;52.516;13.508;2023-07-29T13:46:25;27.27;85.69
69823;SHT31;57119;52.516;13.508;2023-07-29T13:48:50;28.37;82.13
69823;SHT31;57119;52.516;13.508;2023-07-29T13:51:16;28.13;82.03
69823;SHT31;57119;52.516;13.508;2023-07-29T13:53:41;27.70;81.53
69823;SHT31;57119;52.516;13.508;2023-07-29T13:56:06;27.31;81.19
69823;SHT31;57119;52.516;13.508;2023-07-29T13:58:32;27.11;81.42
69823;SHT31;57119;52.516;13.508;2023-07-29T14:00:57;28.58;79.29
69823;SHT31;57119;52.516;13.508;2023-07-29T14:03:22;28.69;77.60
69823;SHT31;57119;52.516;13.508;2023-07-29T14:05:48;28.09;78.76
69823;SHT31;57119;52.516;13.508;2023-07-29T14:08:13;28.41;79.96
69823;SHT31;57119;52.516;13.508;2023-07-29T14:10:39;28.85;76.44
69823;SHT31;57119;52.516;13.508;2023-07-29T14:13:04;28.09;78.05
69823;SHT31;57119;52.516;13.508;2023-07-29T14:15:29;27.88;76.06
69823;SHT31;57119;52.516;13.508;2023-07-29T14:17:57;28.40;76.44
69823;SHT31;57119;52.516;13.508;2023-07-29T14:20:22;30.31;74.63
69823;SHT31;57119;52.516;13.508;2023-07-29T14:22:48;29.58;72.98
69823;SHT31;57119;52.516;13.508;2023-07-29T14:25:14;28.07;76.23
69823;SHT31;57119;52.516;13.508;2023-07-29T14:27:39;27.44;78.46
69823;SHT31;57119;52.516;13.508;2023-07-29T14:30:05;26.70;79.52
69823;SHT31;57119;52.516;13.508;2023-07-29T14:32:32;26.21;81.90
69823;SHT31;57119;52.516;13.508;2023-07-29T14:34:57;26.46;80.79
69823;SHT31;57119;52.516;13.508;2023-07-29T14:37:23;26.05;81.95
69823;SHT31;57119;52.516;13.508;2023-07-29T14:39:48;28.17;78.14
69823;SHT31;57119;52.516;13.508;2023-07-29T14:42:13;28.27;78.12
69823;SHT31;57119;52.516;13.508;2023-07-29T14:44:40;27.00;78.58
69823;SHT31;57119;52.516;13.508;2023-07-29T14:47:08;27.52;78.55
69823;SHT31;57119;52.516;13.508;2023-07-29T14:49:33;26.50;81.52
69823;SHT31;57119;52.516;13.508;2023-07-29T14:51:58;26.24;81.71
69823;SHT31;57119;52.516;13.508;2023-07-29T14:54:24;26.62;81.56
69823;SHT31;57119;52.516;13.508;2023-07-29T14:56:49;27.04;79.48
69823;SHT31;57119;52.516;13.508;2023-07-29T14:59:15;27.59;79.75
69823;SHT31;57119;52.516;13.508;2023-07-29T15:01:40;26.87;80.82
69823;SHT31;57119;52.516;13.508;2023-07-29T15:04:05;25.90;83.02
69823;SHT31;57119;52.516;13.508;2023-07-29T15:06:31;25.35;84.21
69823;SHT31;57119;52.516;13.508;2023-07-29T15:08:56;24.84;84.72
69823;SHT31;57119;52.516;13.508;2023-07-29T15:11:22;24.47;85.69
69823;SHT31;57119;52.516;13.508;2023-07-29T15:13:47;24.17;86.48
69823;SHT31;57119;52.516;13.508;2023-07-29T15:16:13;24.08;86.80
69823;SHT31;57119;52.516;13.508;2023-07-29T15:18:38;23.86;87.83
69823;SHT31;57119;52.516;13.508;2023-07-29T15:21:03;23.79;87.86
69823;SHT31;57119;52.516;13.508;2023-07-29T15:23:29;23.59;87.93
69823;SHT31;57119;52.516;13.508;2023-07-29T15:25:54;23.50;88.15